Portada
METAR-TAF:

METAR-TAF

Aeroports :

Loreto, Mèxic

latitud: 26-01N, longitud: 111-21W, altitud: 15 m

Observació

L'informe es va fer fa 50 minuts, a les 14:47 UTC
Vent calma
Temperatura 26°C
Humitat 58%
Pressió 1009 hPa
Visibilitat: 16.1 km
Escasses núvols a una alçada de 24000 ft

METAR: MMLT 251447Z 00000KT 10SM FEW240 26/17 A2980 RMK SLP091 8/001

Hora: 09:37 (15:37 UTC)

Pronòstic

L'informe es va fer fa 11 hores i 10 minuts, a les 04:27 UTC
Pronòstic vàlid del 25 a les 06 UTC al 26 a les 06 UTC
Vent 5 kt del Sud-Est
Visibilitat: 10 km
Núvols disperses a una alçada de 25000 ft
A partir de les 25 a les 1800 UTC
Vent 10 kt del Est/Nord-Est
Visibilitat: 10 km
Núvols disperses a una alçada de 25000 ft
A partir de les 26 a les 0200 UTC
Vent 5 kt del Nord/Nord-Est
Visibilitat: 10 km
Núvols disperses a una alçada de 25000 ft

TAF: MMLT 250427Z 2506/2606 14005KT P6SM SCT250 FM251800 07010KT P6SM SCT250 FM260200 03005KT P6SM SCT250

Observacions i pronòstics meteorològics de més de 4000 aeroports (METAR i TAF).

Les estacions disponibles són els punts grocs i vermells al mapa.

Posi el ratolí al punt desitjat per veure el nom de l'estació.

Feu clic per veure les observacions i els pronòstics meteorològics.

Per canviar el mapa: feu clic els botons verds amb una creu de color negre per apropar; al botó verd amb un guió per allunyar la imatge; o en les fletxes verdes per a mapes adjacents.


METAR-TAF: